sensor_id;sensor_type;location;lat;lon;timestamp;pressure;altitude;pressure_sealevel;temperature;humidity
6020;BME280;3038;51.122;6.840;2023-04-27T00:00:42;101637.56;;;6.27;66.54
6020;BME280;3038;51.122;6.840;2023-04-27T00:03:07;101636.00;;;6.24;66.37
6020;BME280;3038;51.122;6.840;2023-04-27T00:05:37;101639.69;;;6.22;66.84
6020;BME280;3038;51.122;6.840;2023-04-27T00:08:04;101639.06;;;6.18;67.37
6020;BME280;3038;51.122;6.840;2023-04-27T00:10:29;101637.59;;;6.14;67.52
6020;BME280;3038;51.122;6.840;2023-04-27T00:12:55;101626.53;;;6.09;67.46
6020;BME280;3038;51.122;6.840;2023-04-27T00:15:20;101638.88;;;6.08;67.73
6020;BME280;3038;51.122;6.840;2023-04-27T00:17:45;101633.84;;;6.05;67.68
6020;BME280;3038;51.122;6.840;2023-04-27T00:20:11;101640.78;;;6.06;67.77
6020;BME280;3038;51.122;6.840;2023-04-27T00:22:39;101638.16;;;6.06;68.19
6020;BME280;3038;51.122;6.840;2023-04-27T00:25:05;101636.97;;;6.10;67.27
6020;BME280;3038;51.122;6.840;2023-04-27T00:27:31;101640.56;;;6.09;68.23
6020;BME280;3038;51.122;6.840;2023-04-27T00:29:56;101647.53;;;6.10;68.53
6020;BME280;3038;51.122;6.840;2023-04-27T00:32:22;101644.44;;;6.16;68.26
6020;BME280;3038;51.122;6.840;2023-04-27T00:34:49;101647.59;;;6.22;68.12
6020;BME280;3038;51.122;6.840;2023-04-27T00:37:15;101647.59;;;6.22;68.15
6020;BME280;3038;51.122;6.840;2023-04-27T00:39:40;101650.88;;;6.25;67.99
6020;BME280;3038;51.122;6.840;2023-04-27T00:42:06;101649.78;;;6.28;67.88
6020;BME280;3038;51.122;6.840;2023-04-27T00:44:35;101648.97;;;6.27;67.53
6020;BME280;3038;51.122;6.840;2023-04-27T00:47:01;101649.78;;;6.28;67.48
6020;BME280;3038;51.122;6.840;2023-04-27T00:49:26;101646.44;;;6.26;67.86
6020;BME280;3038;51.122;6.840;2023-04-27T00:51:52;101650.13;;;6.23;68.18
6020;BME280;3038;51.122;6.840;2023-04-27T00:54:20;101637.78;;;6.24;67.80
6020;BME280;3038;51.122;6.840;2023-04-27T00:56:49;101628.69;;;6.28;67.97
6020;BME280;3038;51.122;6.840;2023-04-27T00:59:16;101632.09;;;6.30;67.49
6020;BME280;3038;51.122;6.840;2023-04-27T01:01:41;101637.38;;;6.30;67.13
6020;BME280;3038;51.122;6.840;2023-04-27T01:04:09;101640.97;;;6.29;67.18
6020;BME280;3038;51.122;6.840;2023-04-27T01:06:38;101645.38;;;6.28;67.03
6020;BME280;3038;51.122;6.840;2023-04-27T01:09:05;101635.69;;;6.29;67.21
6020;BME280;3038;51.122;6.840;2023-04-27T01:11:31;101637.38;;;6.30;66.78
6020;BME280;3038;51.122;6.840;2023-04-27T01:13:57;101643.47;;;6.30;67.13
6020;BME280;3038;51.122;6.840;2023-04-27T01:16:30;101635.44;;;6.32;66.98
6020;BME280;3038;51.122;6.840;2023-04-27T01:18:56;101637.13;;;6.33;67.38
6020;BME280;3038;51.122;6.840;2023-04-27T01:21:22;101642.41;;;6.33;67.09
6020;BME280;3038;51.122;6.840;2023-04-27T01:23:47;101637.56;;;6.27;67.64
6020;BME280;3038;51.122;6.840;2023-04-27T01:26:15;101631.16;;;6.18;68.06
6020;BME280;3038;51.122;6.840;2023-04-27T01:28:41;101631.28;;;6.16;67.74
6020;BME280;3038;51.122;6.840;2023-04-27T01:31:09;101634.09;;;6.13;68.08
6020;BME280;3038;51.122;6.840;2023-04-27T01:33:35;101638.88;;;6.08;67.63
6020;BME280;3038;51.122;6.840;2023-04-27T01:36:03;101639.09;;;6.05;67.98
6020;BME280;3038;51.122;6.840;2023-04-27T01:38:31;101634.25;;;5.99;68.05
6020;BME280;3038;51.122;6.840;2023-04-27T01:40:56;101639.75;;;5.96;68.22
6020;BME280;3038;51.122;6.840;2023-04-27T01:43:30;101640.16;;;5.90;68.54
6020;BME280;3038;51.122;6.840;2023-04-27T01:46:09;101640.78;;;5.81;69.20
6020;BME280;3038;51.122;6.840;2023-04-27T01:48:36;101647.75;;;5.82;68.18
6020;BME280;3038;51.122;6.840;2023-04-27T01:51:02;101648.16;;;5.76;68.54
6020;BME280;3038;51.122;6.840;2023-04-27T01:53:28;101653.75;;;5.71;68.95
6020;BME280;3038;51.122;6.840;2023-04-27T01:55:53;101657.63;;;5.65;69.19
6020;BME280;3038;51.122;6.840;2023-04-27T01:58:19;101659.72;;;5.60;69.55
6020;BME280;3038;51.122;6.840;2023-04-27T02:00:45;101660.16;;;5.54;70.05
6020;BME280;3038;51.122;6.840;2023-04-27T02:03:10;101657.09;;;5.48;70.25
6020;BME280;3038;51.122;6.840;2023-04-27T02:05:35;101661.72;;;5.44;70.99
6020;BME280;3038;51.122;6.840;2023-04-27T02:08:01;101670.06;;;5.38;70.27
6020;BME280;3038;51.122;6.840;2023-04-27T02:10:26;101660.97;;;5.29;70.70
6020;BME280;3038;51.122;6.840;2023-04-27T02:12:52;101660.63;;;5.21;71.28
6020;BME280;3038;51.122;6.840;2023-04-27T02:15:17;101661.78;;;5.17;71.39
6020;BME280;3038;51.122;6.840;2023-04-27T02:17:43;101661.22;;;5.12;72.08
6020;BME280;3038;51.122;6.840;2023-04-27T02:20:09;101660.50;;;5.10;72.30
6020;BME280;3038;51.122;6.840;2023-04-27T02:22:35;101665.13;;;5.06;71.96
6020;BME280;3038;51.122;6.840;2023-04-27T02:25:02;101664.38;;;5.04;71.97
6020;BME280;3038;51.122;6.840;2023-04-27T02:27:27;101665.72;;;4.97;72.47
6020;BME280;3038;51.122;6.840;2023-04-27T02:29:53;101664.22;;;4.93;72.55
6020;BME280;3038;51.122;6.840;2023-04-27T02:32:18;101667.19;;;4.88;72.83
6020;BME280;3038;51.122;6.840;2023-04-27T02:34:43;101668.41;;;4.83;72.74
6020;BME280;3038;51.122;6.840;2023-04-27T02:37:09;101662.41;;;4.81;73.20
6020;BME280;3038;51.122;6.840;2023-04-27T02:39:35;101668.06;;;4.75;73.54
6020;BME280;3038;51.122;6.840;2023-04-27T02:42:00;101662.47;;;4.67;73.64
6020;BME280;3038;51.122;6.840;2023-04-27T02:44:27;101658.22;;;4.64;73.38
6020;BME280;3038;51.122;6.840;2023-04-27T02:46:52;101654.84;;;4.62;74.24
6020;BME280;3038;51.122;6.840;2023-04-27T02:49:17;101657.59;;;4.60;73.42
6020;BME280;3038;51.122;6.840;2023-04-27T02:51:43;101654.19;;;4.58;73.79
6020;BME280;3038;51.122;6.840;2023-04-27T02:54:08;101649.69;;;4.60;74.19
6020;BME280;3038;51.122;6.840;2023-04-27T02:56:33;101651.38;;;4.61;74.18
6020;BME280;3038;51.122;6.840;2023-04-27T02:58:59;101653.06;;;4.62;74.41
6020;BME280;3038;51.122;6.840;2023-04-27T03:01:25;101643.31;;;4.64;74.16
6020;BME280;3038;51.122;6.840;2023-04-27T03:03:50;101649.41;;;4.65;73.90
6020;BME280;3038;51.122;6.840;2023-04-27T03:06:16;101641.59;;;4.63;73.94
6020;BME280;3038;51.122;6.840;2023-04-27T03:08:41;101638.34;;;4.60;74.00
6020;BME280;3038;51.122;6.840;2023-04-27T03:11:07;101636.44;;;4.62;73.38
6020;BME280;3038;51.122;6.840;2023-04-27T03:13:33;101641.28;;;4.55;74.09
6020;BME280;3038;51.122;6.840;2023-04-27T03:16:08;101636.94;;;4.54;73.98
6020;BME280;3038;51.122;6.840;2023-04-27T03:18:35;101636.31;;;4.51;74.31
6020;BME280;3038;51.122;6.840;2023-04-27T03:23:30;101643.34;;;4.50;74.04
6020;BME280;3038;51.122;6.840;2023-04-27T03:25:56;101639.00;;;4.49;74.28
6020;BME280;3038;51.122;6.840;2023-04-27T03:28:21;101651.97;;;4.52;74.51
6020;BME280;3038;51.122;6.840;2023-04-27T03:30:46;101648.50;;;4.52;74.16
6020;BME280;3038;51.122;6.840;2023-04-27T03:33:12;101651.25;;;4.50;74.20
6020;BME280;3038;51.122;6.840;2023-04-27T03:35:38;101648.06;;;4.45;74.29
6020;BME280;3038;51.122;6.840;2023-04-27T03:38:03;101651.72;;;4.43;75.34
6020;BME280;3038;51.122;6.840;2023-04-27T03:40:29;101640.53;;;4.39;74.83
6020;BME280;3038;51.122;6.840;2023-04-27T03:42:54;101636.22;;;4.38;74.56
6020;BME280;3038;51.122;6.840;2023-04-27T03:45:19;101639.63;;;4.40;75.00
6020;BME280;3038;51.122;6.840;2023-04-27T03:47:46;101647.59;;;4.38;74.69
6020;BME280;3038;51.122;6.840;2023-04-27T03:50:14;101639.81;;;4.37;74.01
6020;BME280;3038;51.122;6.840;2023-04-27T03:52:40;101644.22;;;4.36;74.94
6020;BME280;3038;51.122;6.840;2023-04-27T03:55:06;101646.94;;;4.35;74.52
6020;BME280;3038;51.122;6.840;2023-04-27T03:57:34;101647.88;;;4.34;74.51
6020;BME280;3038;51.122;6.840;2023-04-27T04:00:00;101655.13;;;4.30;74.89
6020;BME280;3038;51.122;6.840;2023-04-27T04:02:25;101653.34;;;4.31;75.28
6020;BME280;3038;51.122;6.840;2023-04-27T04:04:51;101658.78;;;4.28;75.28
6020;BME280;3038;51.122;6.840;2023-04-27T04:07:17;101658.97;;;4.25;74.59
6020;BME280;3038;51.122;6.840;2023-04-27T04:09:43;101667.25;;;4.19;74.48
6020;BME280;3038;51.122;6.840;2023-04-27T04:12:08;101660.69;;;4.11;74.43
6020;BME280;3038;51.122;6.840;2023-04-27T04:14:34;101664.44;;;4.07;75.24
6020;BME280;3038;51.122;6.840;2023-04-27T04:16:59;101671.94;;;3.99;75.40
6020;BME280;3038;51.122;6.840;2023-04-27T04:19:25;101673.91;;;3.96;75.87
6020;BME280;3038;51.122;6.840;2023-04-27T04:21:50;101673.91;;;3.96;75.90
6020;BME280;3038;51.122;6.840;2023-04-27T04:24:16;101673.34;;;3.91;75.69
6020;BME280;3038;51.122;6.840;2023-04-27T04:26:42;101670.91;;;3.88;76.09
6020;BME280;3038;51.122;6.840;2023-04-27T04:29:08;101666.00;;;3.81;75.83
6020;BME280;3038;51.122;6.840;2023-04-27T04:31:36;101662.53;;;3.81;76.69
6020;BME280;3038;51.122;6.840;2023-04-27T04:34:04;101676.25;;;3.86;76.59
6020;BME280;3038;51.122;6.840;2023-04-27T04:36:30;101671.38;;;3.80;76.81
6020;BME280;3038;51.122;6.840;2023-04-27T04:38:56;101680.75;;;3.84;77.10
6020;BME280;3038;51.122;6.840;2023-04-27T04:41:22;101675.06;;;3.92;76.42
6020;BME280;3038;51.122;6.840;2023-04-27T04:43:48;101677.56;;;3.93;76.72
6020;BME280;3038;51.122;6.840;2023-04-27T04:46:14;101679.38;;;3.93;76.89
6020;BME280;3038;51.122;6.840;2023-04-27T04:48:39;101684.50;;;3.94;77.33
6020;BME280;3038;51.122;6.840;2023-04-27T04:51:05;101683.28;;;4.00;76.11
6020;BME280;3038;51.122;6.840;2023-04-27T04:53:31;101682.28;;;4.02;76.97
6020;BME280;3038;51.122;6.840;2023-04-27T04:55:56;101681.88;;;4.08;77.58
6020;BME280;3038;51.122;6.840;2023-04-27T04:58:22;101681.78;;;4.24;77.07
6020;BME280;3038;51.122;6.840;2023-04-27T05:00:47;101680.19;;;4.36;77.40
6020;BME280;3038;51.122;6.840;2023-04-27T05:03:13;101687.50;;;4.45;77.21
6020;BME280;3038;51.122;6.840;2023-04-27T05:05:38;101683.34;;;4.55;76.12
6020;BME280;3038;51.122;6.840;2023-04-27T05:08:04;101688.09;;;4.63;75.48
6020;BME280;3038;51.122;6.840;2023-04-27T05:10:29;101695.69;;;4.68;75.07
6020;BME280;3038;51.122;6.840;2023-04-27T05:12:54;101696.34;;;4.71;75.61
6020;BME280;3038;51.122;6.840;2023-04-27T05:15:20;101699.00;;;4.71;75.93
6020;BME280;3038;51.122;6.840;2023-04-27T05:17:47;101703.97;;;4.76;75.29
6020;BME280;3038;51.122;6.840;2023-04-27T05:20:13;101708.81;;;4.82;75.06
6020;BME280;3038;51.122;6.840;2023-04-27T05:22:39;101703.38;;;4.85;74.81
6020;BME280;3038;51.122;6.840;2023-04-27T05:25:05;101703.50;;;4.96;74.39
6020;BME280;3038;51.122;6.840;2023-04-27T05:27:30;101697.22;;;4.99;75.30
6020;BME280;3038;51.122;6.840;2023-04-27T05:29:56;101695.44;;;4.99;75.39
6020;BME280;3038;51.122;6.840;2023-04-27T05:32:21;101697.66;;;5.05;74.74
6020;BME280;3038;51.122;6.840;2023-04-27T05:34:46;101703.81;;;5.19;74.36
6020;BME280;3038;51.122;6.840;2023-04-27T05:37:12;101706.22;;;5.22;74.25
6020;BME280;3038;51.122;6.840;2023-04-27T05:39:38;101706.03;;;5.25;74.64
6020;BME280;3038;51.122;6.840;2023-04-27T05:42:03;101713.44;;;5.32;74.32
6020;BME280;3038;51.122;6.840;2023-04-27T05:44:29;101714.28;;;5.46;73.44
6020;BME280;3038;51.122;6.840;2023-04-27T05:46:55;101713.69;;;5.55;73.42
6020;BME280;3038;51.122;6.840;2023-04-27T05:49:27;101721.06;;;5.62;73.65
6020;BME280;3038;51.122;6.840;2023-04-27T05:51:53;101727.41;;;5.73;72.74
6020;BME280;3038;51.122;6.840;2023-04-27T05:54:18;101720.69;;;5.81;73.36
6020;BME280;3038;51.122;6.840;2023-04-27T05:56:44;101722.06;;;5.87;71.78
6020;BME280;3038;51.122;6.840;2023-04-27T05:59:09;101719.78;;;5.95;72.34
6020;BME280;3038;51.122;6.840;2023-04-27T06:01:34;101722.59;;;5.92;72.68
6020;BME280;3038;51.122;6.840;2023-04-27T06:04:00;101720.31;;;6.00;71.79
6020;BME280;3038;51.122;6.840;2023-04-27T06:06:26;101722.38;;;6.08;71.54
6020;BME280;3038;51.122;6.840;2023-04-27T06:08:52;101733.38;;;6.14;71.65
6020;BME280;3038;51.122;6.840;2023-04-27T06:11:18;101736.09;;;6.13;71.93
6020;BME280;3038;51.122;6.840;2023-04-27T06:13:43;101736.72;;;6.16;71.53
6020;BME280;3038;51.122;6.840;2023-04-27T06:16:08;101736.41;;;6.21;71.43
6020;BME280;3038;51.122;6.840;2023-04-27T06:18:36;101741.38;;;6.26;71.87
6020;BME280;3038;51.122;6.840;2023-04-27T06:21:02;101728.50;;;6.34;71.06
6020;BME280;3038;51.122;6.840;2023-04-27T06:23:27;101728.06;;;6.40;71.26
6020;BME280;3038;51.122;6.840;2023-04-27T06:25:53;101720.56;;;6.47;70.82
6020;BME280;3038;51.122;6.840;2023-04-27T06:28:18;101725.31;;;6.54;70.55
6020;BME280;3038;51.122;6.840;2023-04-27T06:30:44;101726.44;;;6.63;70.48
6020;BME280;3038;51.122;6.840;2023-04-27T06:33:09;101721.34;;;6.73;70.38
6020;BME280;3038;51.122;6.840;2023-04-27T06:35:37;101726.47;;;6.87;70.35
6020;BME280;3038;51.122;6.840;2023-04-27T06:38:03;101718.63;;;6.98;69.75
6020;BME280;3038;51.122;6.840;2023-04-27T06:40:28;101720.47;;;7.09;69.81
6020;BME280;3038;51.122;6.840;2023-04-27T06:42:56;101718.72;;;7.20;69.03
6020;BME280;3038;51.122;6.840;2023-04-27T06:45:21;101719.06;;;7.40;68.73
6020;BME280;3038;51.122;6.840;2023-04-27T06:47:47;101726.03;;;7.52;68.03
6020;BME280;3038;51.122;6.840;2023-04-27T06:50:13;101731.59;;;7.60;68.39
6020;BME280;3038;51.122;6.840;2023-04-27T06:52:42;101727.66;;;7.66;67.24
6020;BME280;3038;51.122;6.840;2023-04-27T06:55:07;101725.63;;;7.81;66.45
6020;BME280;3038;51.122;6.840;2023-04-27T06:57:33;101722.66;;;7.96;65.26
6020;BME280;3038;51.122;6.840;2023-04-27T06:59:58;101725.34;;;8.08;65.10
6020;BME280;3038;51.122;6.840;2023-04-27T07:02:24;101718.00;;;8.22;65.07
6020;BME280;3038;51.122;6.840;2023-04-27T07:04:52;101730.38;;;8.33;64.40
6020;BME280;3038;51.122;6.840;2023-04-27T07:07:17;101715.13;;;8.48;63.95
6020;BME280;3038;51.122;6.840;2023-04-27T07:09:43;101714.63;;;8.54;63.57
6020;BME280;3038;51.122;6.840;2023-04-27T07:12:08;101719.31;;;8.50;62.57
6020;BME280;3038;51.122;6.840;2023-04-27T07:14:36;101721.72;;;8.65;63.86
6020;BME280;3038;51.122;6.840;2023-04-27T07:17:01;101721.91;;;8.84;62.33
6020;BME280;3038;51.122;6.840;2023-04-27T07:19:27;101724.53;;;9.07;60.89
6020;BME280;3038;51.122;6.840;2023-04-27T07:21:52;101719.53;;;9.24;59.87
6020;BME280;3038;51.122;6.840;2023-04-27T07:24:18;101718.03;;;9.32;60.64
6020;BME280;3038;51.122;6.840;2023-04-27T07:26:46;101724.22;;;9.53;59.08
6020;BME280;3038;51.122;6.840;2023-04-27T07:29:12;101723.50;;;9.51;59.23
6020;BME280;3038;51.122;6.840;2023-04-27T07:31:38;101725.91;;;9.54;57.47
6020;BME280;3038;51.122;6.840;2023-04-27T07:34:04;101721.94;;;9.69;57.64
6020;BME280;3038;51.122;6.840;2023-04-27T07:36:30;101724.28;;;9.84;57.20
6020;BME280;3038;51.122;6.840;2023-04-27T07:38:56;101720.13;;;9.91;57.04
6020;BME280;3038;51.122;6.840;2023-04-27T07:41:23;101721.03;;;10.01;56.96
6020;BME280;3038;51.122;6.840;2023-04-27T07:43:49;101718.19;;;9.93;56.78
6020;BME280;3038;51.122;6.840;2023-04-27T07:46:16;101723.31;;;10.15;56.74
6020;BME280;3038;51.122;6.840;2023-04-27T07:48:45;101723.06;;;10.18;55.69
6020;BME280;3038;51.122;6.840;2023-04-27T07:51:25;101723.97;;;10.28;53.44
6020;BME280;3038;51.122;6.840;2023-04-27T07:54:12;101710.59;;;10.30;54.88
6020;BME280;3038;51.122;6.840;2023-04-27T07:56:41;101718.22;;;10.54;54.34
6020;BME280;3038;51.122;6.840;2023-04-27T07:59:22;101712.41;;;10.79;52.50
6020;BME280;3038;51.122;6.840;2023-04-27T08:01:50;101708.50;;;10.84;53.55
6020;BME280;3038;51.122;6.840;2023-04-27T08:04:18;101703.47;;;10.90;52.36
6020;BME280;3038;51.122;6.840;2023-04-27T08:06:47;101706.56;;;11.05;52.20
6020;BME280;3038;51.122;6.840;2023-04-27T08:09:16;101707.72;;;11.22;50.50
6020;BME280;3038;51.122;6.840;2023-04-27T08:11:47;101708.81;;;11.19;51.14
6020;BME280;3038;51.122;6.840;2023-04-27T08:14:20;101696.78;;;11.25;50.95
6020;BME280;3038;51.122;6.840;2023-04-27T08:16:46;101697.75;;;11.33;51.23
6020;BME280;3038;51.122;6.840;2023-04-27T08:19:14;101699.16;;;11.38;50.21
6020;BME280;3038;51.122;6.840;2023-04-27T08:21:40;101693.41;;;11.52;49.41
6020;BME280;3038;51.122;6.840;2023-04-27T08:24:05;101703.44;;;11.77;48.93
6020;BME280;3038;51.122;6.840;2023-04-27T08:26:32;101696.25;;;12.07;47.09
6020;BME280;3038;51.122;6.840;2023-04-27T08:28:58;101689.56;;;12.30;45.89
6020;BME280;3038;51.122;6.840;2023-04-27T08:31:24;101690.16;;;12.24;45.99
6020;BME280;3038;51.122;6.840;2023-04-27T08:33:51;101684.47;;;12.37;46.45
6020;BME280;3038;51.122;6.840;2023-04-27T08:36:18;101690.25;;;12.60;44.70
6020;BME280;3038;51.122;6.840;2023-04-27T08:38:44;101685.22;;;12.57;44.02
6020;BME280;3038;51.122;6.840;2023-04-27T08:41:10;101676.66;;;12.35;46.00
6020;BME280;3038;51.122;6.840;2023-04-27T08:43:35;101677.44;;;12.46;44.59
6020;BME280;3038;51.122;6.840;2023-04-27T08:46:01;101679.53;;;12.70;44.54
6020;BME280;3038;51.122;6.840;2023-04-27T08:48:27;101680.84;;;12.83;45.57
6020;BME280;3038;51.122;6.840;2023-04-27T08:50:55;101684.28;;;12.94;44.90
6020;BME280;3038;51.122;6.840;2023-04-27T08:53:21;101689.34;;;12.69;45.02
6020;BME280;3038;51.122;6.840;2023-04-27T08:55:49;101673.84;;;12.82;45.09
6020;BME280;3038;51.122;6.840;2023-04-27T08:58:18;101676.81;;;12.79;45.04
6020;BME280;3038;51.122;6.840;2023-04-27T09:00:43;101674.66;;;12.65;44.70
6020;BME280;3038;51.122;6.840;2023-04-27T09:03:23;101670.72;;;12.87;44.98
6020;BME280;3038;51.122;6.840;2023-04-27T09:05:50;101672.88;;;12.56;44.74
6020;BME280;3038;51.122;6.840;2023-04-27T09:08:16;101673.78;;;12.47;43.62
6020;BME280;3038;51.122;6.840;2023-04-27T09:10:49;101671.03;;;12.39;44.78
6020;BME280;3038;51.122;6.840;2023-04-27T09:13:15;101666.16;;;12.52;44.08
6020;BME280;3038;51.122;6.840;2023-04-27T09:18:14;101678.59;;;13.24;41.68
6020;BME280;3038;51.122;6.840;2023-04-27T09:20:48;101678.00;;;13.30;39.80
6020;BME280;3038;51.122;6.840;2023-04-27T09:23:30;101671.31;;;13.52;40.49
6020;BME280;3038;51.122;6.840;2023-04-27T09:26:02;101676.88;;;13.59;42.47
6020;BME280;3038;51.122;6.840;2023-04-27T09:28:36;101678.47;;;13.78;42.50
6020;BME280;3038;51.122;6.840;2023-04-27T09:31:05;101669.31;;;14.06;41.19
6020;BME280;3038;51.122;6.840;2023-04-27T09:33:37;101671.47;;;14.03;40.54
6020;BME280;3038;51.122;6.840;2023-04-27T09:36:04;101673.56;;;14.17;41.26
6020;BME280;3038;51.122;6.840;2023-04-27T09:38:30;101659.25;;;14.34;39.86
6020;BME280;3038;51.122;6.840;2023-04-27T09:40:58;101663.59;;;14.35;39.18
6020;BME280;3038;51.122;6.840;2023-04-27T09:43:24;101655.78;;;14.42;38.49
6020;BME280;3038;51.122;6.840;2023-04-27T09:45:52;101651.69;;;14.56;39.27
6020;BME280;3038;51.122;6.840;2023-04-27T09:48:21;101654.44;;;15.05;38.40
6020;BME280;3038;51.122;6.840;2023-04-27T09:50:48;101663.81;;;15.33;37.53
6020;BME280;3038;51.122;6.840;2023-04-27T09:53:16;101660.28;;;15.41;38.31
6020;BME280;3038;51.122;6.840;2023-04-27T09:58:57;101651.91;;;15.68;35.89
6020;BME280;3038;51.122;6.840;2023-04-27T10:02:03;101645.16;;;15.89;36.19
6020;BME280;3038;51.122;6.840;2023-04-27T10:05:09;101638.19;;;15.63;36.40
6020;BME280;3038;51.122;6.840;2023-04-27T10:07:39;101640.00;;;15.71;37.51
6020;BME280;3038;51.122;6.840;2023-04-27T10:10:05;101639.69;;;15.74;36.07
6020;BME280;3038;51.122;6.840;2023-04-27T10:12:35;101629.63;;;15.52;34.65
6020;BME280;3038;51.122;6.840;2023-04-27T10:15:13;101619.59;;;15.62;37.53
6020;BME280;3038;51.122;6.840;2023-04-27T10:17:49;101628.63;;;15.77;35.97
6020;BME280;3038;51.122;6.840;2023-04-27T10:20:15;101631.84;;;16.12;36.83
6020;BME280;3038;51.122;6.840;2023-04-27T10:22:46;101625.53;;;16.67;34.51
6020;BME280;3038;51.122;6.840;2023-04-27T10:25:20;101628.00;;;17.23;33.61
6020;BME280;3038;51.122;6.840;2023-04-27T10:27:51;101617.28;;;17.75;34.11
6020;BME280;3038;51.122;6.840;2023-04-27T10:30:19;101609.63;;;18.08;32.49
6020;BME280;3038;51.122;6.840;2023-04-27T10:33:02;101601.19;;;18.26;33.14
6020;BME280;3038;51.122;6.840;2023-04-27T10:35:38;101604.28;;;18.44;31.57
6020;BME280;3038;51.122;6.840;2023-04-27T10:38:14;101614.97;;;19.17;33.13
6020;BME280;3038;51.122;6.840;2023-04-27T10:40:52;101607.72;;;19.45;30.50
6020;BME280;3038;51.122;6.840;2023-04-27T10:43:26;101609.19;;;19.76;29.29
6020;BME280;3038;51.122;6.840;2023-04-27T10:46:14;101604.31;;;19.99;27.46
6020;BME280;3038;51.122;6.840;2023-04-27T10:48:58;101597.19;;;19.22;28.26
6020;BME280;3038;51.122;6.840;2023-04-27T10:52:00;101599.75;;;20.00;29.72
6020;BME280;3038;51.122;6.840;2023-04-27T10:54:30;101596.72;;;20.91;28.45
6020;BME280;3038;51.122;6.840;2023-04-27T10:57:07;101609.41;;;21.57;29.41
6020;BME280;3038;51.122;6.840;2023-04-27T10:59:34;101595.50;;;22.04;28.69
6020;BME280;3038;51.122;6.840;2023-04-27T11:02:04;101588.31;;;22.37;25.79
6020;BME280;3038;51.122;6.840;2023-04-27T11:04:40;101600.66;;;22.26;26.05
6020;BME280;3038;51.122;6.840;2023-04-27T11:07:07;101587.88;;;22.78;27.04
6020;BME280;3038;51.122;6.840;2023-04-27T11:10:02;101598.78;;;22.96;23.84
6020;BME280;3038;51.122;6.840;2023-04-27T11:12:42;101589.94;;;22.76;25.14
6020;BME280;3038;51.122;6.840;2023-04-27T11:18:12;101581.34;;;22.92;24.81
6020;BME280;3038;51.122;6.840;2023-04-27T11:20:53;101582.56;;;23.58;23.27
6020;BME280;3038;51.122;6.840;2023-04-27T11:23:30;101591.56;;;24.14;24.36
6020;BME280;3038;51.122;6.840;2023-04-27T11:26:15;101588.72;;;24.08;22.51
6020;BME280;3038;51.122;6.840;2023-04-27T11:29:04;101583.00;;;23.37;23.76
6020;BME280;3038;51.122;6.840;2023-04-27T11:34:18;101579.19;;;23.63;24.20
6020;BME280;3038;51.122;6.840;2023-04-27T11:37:01;101581.09;;;23.19;23.73
6020;BME280;3038;51.122;6.840;2023-04-27T11:39:31;101577.91;;;23.03;24.33
6020;BME280;3038;51.122;6.840;2023-04-27T11:42:34;101573.59;;;22.64;23.11
6020;BME280;3038;51.122;6.840;2023-04-27T11:45:05;101575.97;;;22.47;25.21
6020;BME280;3038;51.122;6.840;2023-04-27T11:50:47;101564.88;;;23.37;24.41
6020;BME280;3038;51.122;6.840;2023-04-27T11:53:14;101554.25;;;24.09;23.75
6020;BME280;3038;51.122;6.840;2023-04-27T11:55:50;101548.63;;;23.74;24.39
6020;BME280;3038;51.122;6.840;2023-04-27T11:58:16;101549.72;;;23.29;25.79
6020;BME280;3038;51.122;6.840;2023-04-27T12:00:47;101545.75;;;23.32;24.29
6020;BME280;3038;51.122;6.840;2023-04-27T12:03:28;101540.59;;;24.16;22.71
6020;BME280;3038;51.122;6.840;2023-04-27T12:06:00;101541.72;;;24.56;22.96
6020;BME280;3038;51.122;6.840;2023-04-27T12:08:33;101547.16;;;24.80;22.77
6020;BME280;3038;51.122;6.840;2023-04-27T12:11:02;101550.16;;;25.49;22.86
6020;BME280;3038;51.122;6.840;2023-04-27T12:13:28;101543.75;;;25.55;22.75
6020;BME280;3038;51.122;6.840;2023-04-27T12:15:59;101539.41;;;24.95;23.46
6020;BME280;3038;51.122;6.840;2023-04-27T12:18:31;101538.22;;;24.91;22.89
6020;BME280;3038;51.122;6.840;2023-04-27T12:21:04;101533.44;;;25.69;22.01
6020;BME280;3038;51.122;6.840;2023-04-27T12:23:32;101532.06;;;27.02;20.65
6020;BME280;3038;51.122;6.840;2023-04-27T12:25:58;101529.09;;;28.08;20.20
6020;BME280;3038;51.122;6.840;2023-04-27T12:28:23;101529.25;;;29.20;18.73
6020;BME280;3038;51.122;6.840;2023-04-27T12:30:48;101525.78;;;27.79;20.46
6020;BME280;3038;51.122;6.840;2023-04-27T12:33:14;101520.00;;;25.50;21.27
6020;BME280;3038;51.122;6.840;2023-04-27T12:35:50;101526.66;;;25.07;21.37
6020;BME280;3038;51.122;6.840;2023-04-27T12:38:16;101522.81;;;24.61;22.81
6020;BME280;3038;51.122;6.840;2023-04-27T12:40:51;101512.91;;;24.67;22.48
6020;BME280;3038;51.122;6.840;2023-04-27T12:43:38;101524.50;;;25.33;21.50
6020;BME280;3038;51.122;6.840;2023-04-27T12:46:05;101525.34;;;25.22;21.69
6020;BME280;3038;51.122;6.840;2023-04-27T12:48:31;101531.63;;;25.34;22.06
6020;BME280;3038;51.122;6.840;2023-04-27T12:50:57;101527.38;;;26.19;20.19
6020;BME280;3038;51.122;6.840;2023-04-27T12:53:23;101523.56;;;26.48;19.82
6020;BME280;3038;51.122;6.840;2023-04-27T12:55:48;101510.47;;;27.34;19.03
6020;BME280;3038;51.122;6.840;2023-04-27T12:58:13;101513.44;;;28.53;18.61
6020;BME280;3038;51.122;6.840;2023-04-27T13:00:39;101507.38;;;28.18;19.88
6020;BME280;3038;51.122;6.840;2023-04-27T13:03:05;101511.84;;;28.94;18.92
6020;BME280;3038;51.122;6.840;2023-04-27T13:05:30;101515.28;;;29.11;19.29
6020;BME280;3038;51.122;6.840;2023-04-27T13:07:56;101506.66;;;28.92;19.31
6020;BME280;3038;51.122;6.840;2023-04-27T13:10:21;101502.69;;;28.41;19.70
6020;BME280;3038;51.122;6.840;2023-04-27T13:12:46;101507.69;;;27.95;19.87
6020;BME280;3038;51.122;6.840;2023-04-27T13:15:12;101516.94;;;29.12;18.60
6020;BME280;3038;51.122;6.840;2023-04-27T13:17:37;101513.16;;;29.24;17.40
6020;BME280;3038;51.122;6.840;2023-04-27T13:20:03;101506.66;;;28.01;18.41
6020;BME280;3038;51.122;6.840;2023-04-27T13:22:30;101506.84;;;28.22;18.24
6020;BME280;3038;51.122;6.840;2023-04-27T13:24:55;101496.78;;;28.49;18.77
6020;BME280;3038;51.122;6.840;2023-04-27T13:27:21;101504.09;;;28.16;20.10
6020;BME280;3038;51.122;6.840;2023-04-27T13:29:49;101496.53;;;27.75;19.18
6020;BME280;3038;51.122;6.840;2023-04-27T13:32:15;101500.91;;;28.25;19.14
6020;BME280;3038;51.122;6.840;2023-04-27T13:34:42;101488.53;;;28.44;18.42
6020;BME280;3038;51.122;6.840;2023-04-27T13:37:10;101496.44;;;28.18;19.81
6020;BME280;3038;51.122;6.840;2023-04-27T13:39:36;101501.06;;;28.72;19.58